createdAt,value
2024-01-18T00:00:04.640Z,96539.25
2024-01-18T00:01:10.325Z,96538.06
2024-01-18T00:02:12.585Z,96544.50
2024-01-18T00:03:15.802Z,96545.91
2024-01-18T00:04:18.581Z,96552.16
2024-01-18T00:05:20.933Z,96559.59
2024-01-18T00:06:23.196Z,96549.28
2024-01-18T00:07:25.591Z,96557.47
2024-01-18T00:08:27.876Z,96571.56
2024-01-18T00:09:30.192Z,96563.38
2024-01-18T00:10:32.842Z,96560.06
2024-01-18T00:11:35.046Z,96552.94
2024-01-18T00:12:38.233Z,96562.31
2024-01-18T00:13:40.549Z,96565.63
2024-01-18T00:14:42.738Z,96564.56
2024-01-18T00:15:45.182Z,96567.56
2024-01-18T00:16:47.500Z,96572.28
2024-01-18T00:17:50.050Z,96575.59
2024-01-18T00:18:52.699Z,96566.53
2024-01-18T00:19:55.446Z,96565.47
2024-01-18T00:20:57.762Z,96568.91
2024-01-18T00:22:00.237Z,96558.38
2024-01-18T00:23:02.491Z,96567.59
2024-01-18T00:24:05.130Z,96580.84
2024-01-18T00:25:08.278Z,96577.28
2024-01-18T00:26:10.592Z,96576.44
2024-01-18T00:27:13.280Z,96580.84
2024-01-18T00:28:15.865Z,96590.50
2024-01-18T00:29:18.371Z,96593.25
2024-01-18T00:30:20.694Z,96587.75
2024-01-18T00:31:22.962Z,96586.44
2024-01-18T00:32:27.255Z,96602.94
2024-01-18T00:33:29.678Z,96608.53
2024-01-18T00:34:31.966Z,96609.69
2024-01-18T00:35:34.345Z,96622.75
2024-01-18T00:36:36.661Z,96633.00
2024-01-18T00:37:38.884Z,96630.53
2024-01-18T00:38:41.073Z,96623.41
2024-01-18T00:39:43.952Z,96625.63
2024-01-18T00:40:46.232Z,96621.66
2024-01-18T00:41:49.156Z,96626.53
2024-01-18T00:42:51.395Z,96638.19
2024-01-18T00:43:53.592Z,96650.97
2024-01-18T00:44:55.837Z,96656.78
2024-01-18T00:46:03.294Z,96662.97
2024-01-18T00:47:05.536Z,96669.56
2024-01-18T00:48:08.358Z,96655.09
2024-01-18T00:49:10.978Z,96650.75
2024-01-18T00:50:13.270Z,96650.69
2024-01-18T00:51:15.635Z,96649.41
2024-01-18T00:52:17.935Z,96665.19
2024-01-18T00:53:21.287Z,96657.97
2024-01-18T00:54:24.872Z,96673.97
2024-01-18T00:55:27.117Z,96693.13
2024-01-18T00:56:29.359Z,96685.97
2024-01-18T00:57:31.791Z,96686.53
2024-01-18T00:58:34.082Z,96679.91
2024-01-18T00:59:36.324Z,96673.72
2024-01-18T01:00:38.717Z,96681.66
2024-01-18T01:01:41.194Z,96680.19
2024-01-18T01:02:43.452Z,96681.53
2024-01-18T01:03:45.801Z,96681.56
2024-01-18T01:04:48.046Z,96694.22
2024-01-18T01:05:50.438Z,96688.38
2024-01-18T01:06:52.692Z,96699.78
2024-01-18T01:07:55.028Z,96702.88
2024-01-18T01:08:57.306Z,96707.41
2024-01-18T01:09:59.538Z,96704.13
2024-01-18T01:11:04.911Z,96704.25
2024-01-18T01:12:07.197Z,96705.00
2024-01-18T01:13:10.621Z,96704.34
2024-01-18T01:14:12.905Z,96705.59
2024-01-18T01:15:15.331Z,96715.69
2024-01-18T01:16:17.826Z,96701.81
2024-01-18T01:17:20.065Z,96694.63
2024-01-18T01:18:22.411Z,96713.41
2024-01-18T01:19:24.718Z,96712.94
2024-01-18T01:20:26.991Z,96717.22
2024-01-18T01:21:30.025Z,96722.50
2024-01-18T01:22:32.621Z,96712.88
2024-01-18T01:23:39.658Z,96725.66
2024-01-18T01:24:42.022Z,96735.28
2024-01-18T01:25:44.244Z,96736.59
2024-01-18T01:26:46.423Z,96734.94
2024-01-18T01:27:49.461Z,96735.47
2024-01-18T01:28:51.857Z,96744.25
2024-01-18T01:29:54.130Z,96740.47
2024-01-18T01:30:56.350Z,96747.31
2024-01-18T01:31:58.572Z,96751.19
2024-01-18T01:33:01.025Z,96745.56
2024-01-18T01:34:03.526Z,96742.06
2024-01-18T01:35:06.750Z,96740.53
2024-01-18T01:36:09.386Z,96745.56
2024-01-18T01:37:12.409Z,96746.16
2024-01-18T01:38:17.208Z,96738.66
2024-01-18T01:39:19.991Z,96745.16
2024-01-18T01:40:22.335Z,96749.81
2024-01-18T01:41:24.697Z,96753.75
2024-01-18T01:42:27.165Z,96767.06
2024-01-18T01:43:29.660Z,96763.13
2024-01-18T01:44:31.906Z,96763.75
2024-01-18T01:45:34.406Z,96763.97
2024-01-18T01:46:36.718Z,96766.56
2024-01-18T01:47:39.716Z,96761.47
2024-01-18T01:48:42.137Z,96764.53
2024-01-18T01:49:44.591Z,96754.78
2024-01-18T01:50:49.835Z,96751.44
2024-01-18T01:51:52.583Z,96752.94
2024-01-18T01:52:55.663Z,96763.13
2024-01-18T01:53:58.420Z,96772.34
2024-01-18T01:55:01.270Z,96762.41
2024-01-18T01:56:04.053Z,96757.00
2024-01-18T01:57:07.073Z,96771.25
2024-01-18T01:58:12.546Z,96776.63
2024-01-18T01:59:17.382Z,96758.00
2024-01-18T02:00:19.737Z,96757.72
2024-01-18T02:01:21.968Z,96760.03
2024-01-18T02:02:24.594Z,96755.78
2024-01-18T02:03:26.925Z,96761.38
2024-01-18T02:04:30.730Z,96757.88
2024-01-18T02:05:33.101Z,96750.69
2024-01-18T02:06:37.573Z,96771.19
2024-01-18T02:07:40.111Z,96753.13
2024-01-18T02:08:42.654Z,96764.38
2024-01-18T02:09:45.235Z,96759.53
2024-01-18T02:10:48.177Z,96770.25
2024-01-18T02:11:50.469Z,96750.09
2024-01-18T02:12:53.137Z,96739.53
2024-01-18T02:13:58.260Z,96759.91
2024-01-18T02:15:00.851Z,96745.47
2024-01-18T02:16:03.800Z,96739.03
2024-01-18T02:17:07.518Z,96750.66
2024-01-18T02:18:09.943Z,96754.22
2024-01-18T02:19:12.452Z,96750.81
2024-01-18T02:20:14.950Z,96736.53
2024-01-18T02:21:17.234Z,96753.75
2024-01-18T02:22:21.299Z,96757.44
2024-01-18T02:23:23.655Z,96759.59
2024-01-18T02:24:53.728Z,96781.69
2024-01-18T02:25:55.958Z,96769.41
2024-01-18T02:27:01.152Z,96766.31
2024-01-18T02:28:03.666Z,96770.97
2024-01-18T02:29:05.847Z,96758.16
2024-01-18T02:30:08.822Z,96754.44
2024-01-18T02:31:11.035Z,96765.00
2024-01-18T02:32:13.232Z,96769.97
2024-01-18T02:33:15.635Z,96763.00
2024-01-18T02:34:19.262Z,96758.16
2024-01-18T02:35:21.758Z,96754.03
2024-01-18T02:36:24.379Z,96759.75
2024-01-18T02:37:26.646Z,96756.72
2024-01-18T02:38:29.096Z,96757.84
2024-01-18T02:39:31.502Z,96756.28
2024-01-18T02:40:33.880Z,96752.84
2024-01-18T02:41:36.467Z,96755.13
2024-01-18T02:42:38.804Z,96754.06
2024-01-18T02:43:41.981Z,96762.81
2024-01-18T02:44:46.182Z,96756.22
2024-01-18T02:45:48.433Z,96763.13
2024-01-18T02:46:50.700Z,96766.59
2024-01-18T02:47:52.978Z,96765.88
2024-01-18T02:48:55.282Z,96768.38
2024-01-18T02:49:57.981Z,96761.97
2024-01-18T02:51:00.286Z,96762.66
2024-01-18T02:52:02.587Z,96758.09
2024-01-18T02:53:04.822Z,96771.66
2024-01-18T02:54:07.017Z,96777.75
2024-01-18T02:55:09.423Z,96787.19
2024-01-18T02:56:11.847Z,96789.00
2024-01-18T02:57:14.132Z,96793.63
2024-01-18T02:58:17.431Z,96796.59
2024-01-18T02:59:19.895Z,96800.06
2024-01-18T03:02:09.653Z,96792.41
2024-01-18T03:03:12.083Z,96791.81
2024-01-18T03:04:14.334Z,96793.19
2024-01-18T03:05:16.687Z,96779.25
2024-01-18T03:06:18.948Z,96780.41
2024-01-18T03:07:21.163Z,96774.78
2024-01-18T03:08:23.440Z,96780.25
2024-01-18T03:09:25.874Z,96778.19
2024-01-18T03:10:28.118Z,96764.50
2024-01-18T03:11:30.347Z,96775.72
2024-01-18T03:12:35.894Z,96780.56
2024-01-18T03:13:38.214Z,96787.41
2024-01-18T03:14:40.457Z,96786.44
2024-01-18T03:15:42.938Z,96788.94
2024-01-18T03:16:45.158Z,96796.25
2024-01-18T03:17:47.606Z,96793.94
2024-01-18T03:18:49.989Z,96788.47
2024-01-18T03:19:52.411Z,96790.47
2024-01-18T03:20:54.874Z,96795.84
2024-01-18T03:21:59.254Z,96796.56
2024-01-18T03:23:01.598Z,96792.88
2024-01-18T03:24:04.034Z,96780.41
2024-01-18T03:25:06.448Z,96783.16
2024-01-18T03:26:09.517Z,96785.97
2024-01-18T03:27:11.825Z,96783.44
2024-01-18T03:28:14.129Z,96777.19
2024-01-18T03:29:16.443Z,96777.34
2024-01-18T03:30:18.932Z,96786.78
2024-01-18T03:31:21.102Z,96784.63
2024-01-18T03:32:23.856Z,96789.91
2024-01-18T03:33:26.332Z,96782.97
2024-01-18T03:34:28.736Z,96774.31
2024-01-18T03:35:31.014Z,96779.88
2024-01-18T03:36:33.266Z,96773.28
2024-01-18T03:37:35.796Z,96769.78
2024-01-18T03:38:38.052Z,96782.06
2024-01-18T03:39:40.369Z,96787.19
2024-01-18T03:40:42.657Z,96783.50
2024-01-18T03:41:44.888Z,96784.78
2024-01-18T03:42:47.169Z,96790.59
2024-01-18T03:43:49.976Z,96782.66
2024-01-18T03:44:52.221Z,96797.00
2024-01-18T03:45:54.430Z,96806.59
2024-01-18T03:46:56.677Z,96800.50
2024-01-18T03:47:58.947Z,96791.75
2024-01-18T03:49:01.321Z,96787.56
2024-01-18T03:50:04.473Z,96779.63
2024-01-18T03:51:07.258Z,96782.84
2024-01-18T03:52:11.483Z,96783.47
2024-01-18T03:53:13.889Z,96772.09
2024-01-18T03:54:16.114Z,96766.28
2024-01-18T03:55:18.401Z,96772.97
2024-01-18T03:56:20.671Z,96770.56
2024-01-18T03:57:22.987Z,96762.63
2024-01-18T03:58:25.236Z,96762.09
2024-01-18T03:59:27.540Z,96756.59
2024-01-18T04:00:29.849Z,96767.59
2024-01-18T04:01:35.663Z,96770.31
2024-01-18T04:02:38.363Z,96766.88
2024-01-18T04:03:43.541Z,96773.41
2024-01-18T04:04:45.970Z,96768.38
2024-01-18T04:05:48.387Z,96764.84
2024-01-18T04:06:50.657Z,96772.41
2024-01-18T04:07:53.123Z,96782.63
2024-01-18T04:08:55.372Z,96779.44
2024-01-18T04:09:57.864Z,96764.25
2024-01-18T04:11:00.231Z,96764.78
2024-01-18T04:12:02.541Z,96768.91
2024-01-18T04:13:04.861Z,96778.03
2024-01-18T04:14:07.095Z,96780.72
2024-01-18T04:15:10.261Z,96784.44
2024-01-18T04:16:12.459Z,96781.63
2024-01-18T04:17:14.718Z,96781.41
2024-01-18T04:18:17.175Z,96767.19
2024-01-18T04:19:19.812Z,96760.63
2024-01-18T04:20:27.437Z,96768.00
2024-01-18T04:21:30.020Z,96773.69
2024-01-18T04:22:32.524Z,96777.34
2024-01-18T04:23:34.813Z,96775.00
2024-01-18T04:24:37.168Z,96782.00
2024-01-18T04:25:39.442Z,96773.41
2024-01-18T04:26:41.972Z,96779.16
2024-01-18T04:27:44.336Z,96784.19
2024-01-18T04:28:46.664Z,96781.81
2024-01-18T04:29:48.868Z,96781.47
2024-01-18T04:30:51.235Z,96779.88
2024-01-18T04:31:53.842Z,96776.72
2024-01-18T04:32:56.143Z,96770.31
2024-01-18T04:33:58.461Z,96774.34
2024-01-18T04:35:00.818Z,96774.63
2024-01-18T04:36:03.764Z,96772.09
2024-01-18T04:37:05.978Z,96777.59
2024-01-18T04:38:08.278Z,96781.19
2024-01-18T04:39:10.673Z,96774.16
2024-01-18T04:40:13.475Z,96781.31
2024-01-18T04:41:16.359Z,96778.34
2024-01-18T04:42:18.675Z,96782.13
2024-01-18T04:43:21.066Z,96789.06
2024-01-18T04:44:23.302Z,96793.34
2024-01-18T04:45:26.032Z,96799.97
2024-01-18T04:46:28.410Z,96799.59
2024-01-18T04:47:30.782Z,96807.66
2024-01-18T04:48:33.208Z,96804.38
2024-01-18T04:49:35.709Z,96809.19
2024-01-18T04:50:37.909Z,96807.88
2024-01-18T04:51:40.515Z,96798.28
2024-01-18T04:52:43.335Z,96799.13
2024-01-18T04:53:45.689Z,96800.00
2024-01-18T04:54:47.920Z,96800.84
2024-01-18T04:55:50.829Z,96807.34
2024-01-18T04:56:53.258Z,96811.44
2024-01-18T04:57:55.871Z,96810.25
2024-01-18T04:58:58.482Z,96815.25
2024-01-18T05:00:00.898Z,96811.78
2024-01-18T05:01:03.390Z,96816.69
2024-01-18T05:02:05.701Z,96819.34
2024-01-18T05:03:08.546Z,96811.09
2024-01-18T05:04:10.933Z,96810.63
2024-01-18T05:05:13.338Z,96819.06
2024-01-18T05:06:15.869Z,96824.56
2024-01-18T05:07:18.405Z,96840.75
2024-01-18T05:08:21.580Z,96834.53
2024-01-18T05:09:23.912Z,96831.34
2024-01-18T05:10:26.311Z,96831.13
2024-01-18T05:11:28.752Z,96847.47
2024-01-18T05:12:31.529Z,96860.06
2024-01-18T05:13:33.765Z,96856.56
2024-01-18T05:14:35.997Z,96851.38
2024-01-18T05:15:38.221Z,96837.56
2024-01-18T05:16:41.476Z,96829.66
2024-01-18T05:17:45.329Z,96833.06
2024-01-18T05:18:47.801Z,96843.09
2024-01-18T05:19:50.011Z,96845.38
2024-01-18T05:20:52.214Z,96830.28
2024-01-18T05:21:55.964Z,96830.06
2024-01-18T05:22:58.315Z,96831.94
2024-01-18T05:24:00.647Z,96832.78
2024-01-18T05:25:03.555Z,96834.19
2024-01-18T05:26:06.211Z,96827.47
2024-01-18T05:27:08.958Z,96835.38
2024-01-18T05:28:13.393Z,96841.16
2024-01-18T05:29:15.732Z,96841.16
2024-01-18T05:30:18.061Z,96843.28
2024-01-18T05:31:20.305Z,96831.06
2024-01-18T05:32:22.866Z,96841.31
2024-01-18T05:33:25.229Z,96833.22
2024-01-18T05:34:27.934Z,96841.94
2024-01-18T05:35:30.489Z,96835.31
2024-01-18T05:36:32.761Z,96839.78
2024-01-18T05:37:35.032Z,96834.13
2024-01-18T05:38:41.416Z,96827.91
2024-01-18T05:39:45.555Z,96837.22
2024-01-18T05:40:47.812Z,96831.47
2024-01-18T05:41:50.048Z,96836.41
2024-01-18T05:42:52.814Z,96832.47
2024-01-18T05:43:55.169Z,96833.91
2024-01-18T05:44:57.401Z,96843.41
2024-01-18T05:45:59.706Z,96842.72
2024-01-18T05:47:02.497Z,96832.25
2024-01-18T05:48:05.628Z,96836.44
2024-01-18T05:49:08.462Z,96818.25
2024-01-18T05:50:11.542Z,96826.53
2024-01-18T05:51:13.904Z,96817.94
2024-01-18T05:52:16.814Z,96822.97
2024-01-18T05:53:19.074Z,96814.50
2024-01-18T05:54:21.428Z,96823.00
2024-01-18T05:55:23.760Z,96819.84
2024-01-18T05:56:27.270Z,96822.06
2024-01-18T05:57:29.525Z,96824.00
2024-01-18T05:58:32.723Z,96828.19
2024-01-18T05:59:36.336Z,96827.13
2024-01-18T06:00:38.729Z,96822.38
2024-01-18T06:01:41.583Z,96815.22
2024-01-18T06:02:43.896Z,96824.25
2024-01-18T06:03:46.343Z,96825.63
2024-01-18T06:04:48.788Z,96816.38
2024-01-18T06:05:51.220Z,96822.91
2024-01-18T06:06:53.829Z,96833.25
2024-01-18T06:07:56.127Z,96817.94
2024-01-18T06:08:58.467Z,96826.47
2024-01-18T06:10:00.901Z,96822.34
2024-01-18T06:11:03.788Z,96829.34
2024-01-18T06:12:07.939Z,96826.53
2024-01-18T06:13:11.061Z,96827.22
2024-01-18T06:14:14.147Z,96825.63
2024-01-18T06:15:16.542Z,96827.59
2024-01-18T06:16:18.882Z,96833.97
2024-01-18T06:17:21.528Z,96842.72
2024-01-18T06:18:24.788Z,96837.66
2024-01-18T06:19:27.428Z,96829.59
2024-01-18T06:20:29.708Z,96836.72
2024-01-18T06:21:33.631Z,96823.13
2024-01-18T06:22:36.843Z,96827.38
2024-01-18T06:23:41.185Z,96818.84
2024-01-18T06:24:43.687Z,96819.00
2024-01-18T06:25:46.115Z,96814.16
2024-01-18T06:26:49.886Z,96815.69
2024-01-18T06:27:52.345Z,96815.41
2024-01-18T06:28:54.641Z,96816.06
2024-01-18T06:29:57.119Z,96812.56
2024-01-18T06:31:00.344Z,96810.63
2024-01-18T06:32:05.403Z,96808.97
2024-01-18T06:33:09.215Z,96808.72
2024-01-18T06:34:11.937Z,96806.63
2024-01-18T06:35:14.296Z,96804.78
2024-01-18T06:36:16.660Z,96809.88
2024-01-18T06:37:18.963Z,96806.41
2024-01-18T06:38:24.367Z,96813.69
2024-01-18T06:39:26.741Z,96814.75
2024-01-18T06:40:28.988Z,96810.88
2024-01-18T06:41:31.382Z,96816.81
2024-01-18T06:42:33.856Z,96823.94
2024-01-18T06:43:39.316Z,96827.66
2024-01-18T06:44:46.009Z,96829.03
2024-01-18T06:45:55.523Z,96831.38
2024-01-18T06:46:57.820Z,96831.19
2024-01-18T06:48:00.259Z,96833.28
2024-01-18T06:49:02.697Z,96831.06
2024-01-18T06:50:05.246Z,96834.75
2024-01-18T06:51:07.618Z,96831.34
2024-01-18T06:52:09.857Z,96839.88
2024-01-18T06:53:12.229Z,96832.47
2024-01-18T06:54:19.060Z,96832.66
2024-01-18T06:55:22.188Z,96831.63
2024-01-18T06:56:25.376Z,96825.25
2024-01-18T06:57:27.685Z,96820.03
2024-01-18T06:58:29.975Z,96825.41
2024-01-18T06:59:32.188Z,96823.94
2024-01-18T07:00:34.853Z,96820.78
2024-01-18T07:01:37.275Z,96819.88
2024-01-18T07:02:39.541Z,96812.00
2024-01-18T07:03:43.437Z,96807.44
2024-01-18T07:04:46.653Z,96816.53
2024-01-18T07:05:49.975Z,96820.09
2024-01-18T07:06:52.332Z,96829.91
2024-01-18T07:07:55.384Z,96828.03
2024-01-18T07:08:58.716Z,96828.72
2024-01-18T07:10:00.994Z,96839.56
2024-01-18T07:11:03.237Z,96838.03
2024-01-18T07:12:05.856Z,96837.66
2024-01-18T07:13:08.168Z,96833.34
2024-01-18T07:14:10.428Z,96829.16
2024-01-18T07:15:12.937Z,96839.56
2024-01-18T07:16:15.548Z,96845.34
2024-01-18T07:17:18.113Z,96857.44
2024-01-18T07:18:20.446Z,96847.13
2024-01-18T07:19:22.758Z,96854.78
2024-01-18T07:20:25.254Z,96852.59
2024-01-18T07:21:27.497Z,96855.25
2024-01-18T07:22:29.755Z,96852.94
2024-01-18T07:23:32.243Z,96856.56
2024-01-18T07:24:34.894Z,96844.94
2024-01-18T07:25:37.205Z,96846.69
2024-01-18T07:26:40.525Z,96848.66
2024-01-18T07:27:42.795Z,96839.19
2024-01-18T07:28:45.112Z,96845.09
2024-01-18T07:29:50.265Z,96833.16
2024-01-18T07:30:52.597Z,96831.25
2024-01-18T07:31:54.965Z,96833.53
2024-01-18T07:32:57.244Z,96840.16
2024-01-18T07:33:59.593Z,96834.50
2024-01-18T07:35:02.205Z,96851.75
2024-01-18T07:36:04.969Z,96844.34
2024-01-18T07:37:10.736Z,96837.97
2024-01-18T07:38:14.801Z,96839.44
2024-01-18T07:39:17.141Z,96849.59
2024-01-18T07:40:20.303Z,96850.50
2024-01-18T07:41:22.535Z,96841.84
2024-01-18T07:42:24.883Z,96853.59
2024-01-18T07:43:27.122Z,96851.00
2024-01-18T07:44:31.875Z,96850.63
2024-01-18T07:45:34.761Z,96849.84
2024-01-18T07:46:37.389Z,96857.66
2024-01-18T07:47:39.878Z,96855.75
2024-01-18T07:48:42.270Z,96848.81
2024-01-18T07:49:49.541Z,96854.56
2024-01-18T07:50:52.771Z,96854.56
2024-01-18T07:51:55.018Z,96860.41
2024-01-18T07:52:57.542Z,96858.81
2024-01-18T07:53:59.886Z,96860.28
2024-01-18T07:55:02.266Z,96851.25
2024-01-18T07:56:04.724Z,96850.88
2024-01-18T07:57:07.037Z,96859.06
2024-01-18T07:58:09.445Z,96860.66
2024-01-18T07:59:12.129Z,96858.66
2024-01-18T08:00:14.903Z,96849.84
2024-01-18T08:01:18.382Z,96858.38
2024-01-18T08:02:20.678Z,96852.38
2024-01-18T08:03:23.150Z,96860.19
2024-01-18T08:04:26.707Z,96865.41
2024-01-18T08:05:29.327Z,96860.13
2024-01-18T08:06:32.326Z,96866.09
2024-01-18T08:07:34.927Z,96859.50
2024-01-18T08:08:37.711Z,96869.91
2024-01-18T08:09:40.061Z,96871.50
2024-01-18T08:10:42.376Z,96880.19
2024-01-18T08:11:44.604Z,96879.38
2024-01-18T08:12:48.856Z,96879.38
2024-01-18T08:13:52.858Z,96878.59
2024-01-18T08:14:55.067Z,96879.69
2024-01-18T08:15:58.302Z,96884.38
2024-01-18T08:17:00.631Z,96882.22
2024-01-18T08:18:02.942Z,96876.00
2024-01-18T08:19:05.539Z,96879.00
2024-01-18T08:20:17.486Z,96881.72
2024-01-18T08:21:19.857Z,96887.94
2024-01-18T08:22:22.181Z,96888.97
2024-01-18T08:23:24.621Z,96883.63
2024-01-18T08:24:26.902Z,96888.28
2024-01-18T08:25:29.118Z,96891.56
2024-01-18T08:26:31.339Z,96889.72
2024-01-18T08:27:33.612Z,96901.09
2024-01-18T08:28:36.011Z,96904.06
2024-01-18T08:29:39.114Z,96903.25
2024-01-18T08:30:41.723Z,96906.00
2024-01-18T08:31:44.061Z,96909.25
2024-01-18T08:32:46.590Z,96913.34
2024-01-18T08:33:48.935Z,96901.97
2024-01-18T08:34:51.239Z,96915.00
2024-01-18T08:35:53.560Z,96918.25
2024-01-18T08:36:55.787Z,96910.63
2024-01-18T08:37:58.099Z,96916.44
2024-01-18T08:39:01.674Z,96929.91
2024-01-18T08:40:04.196Z,96928.88
2024-01-18T08:41:06.417Z,96932.63
2024-01-18T08:42:09.521Z,96937.72
2024-01-18T08:43:11.761Z,96939.16
2024-01-18T08:44:14.163Z,96943.81
2024-01-18T08:45:16.792Z,96952.41
2024-01-18T08:46:19.201Z,96946.97
2024-01-18T08:47:23.173Z,96942.53
2024-01-18T08:48:25.501Z,96953.19
2024-01-18T08:49:27.968Z,96946.16
2024-01-18T08:50:30.298Z,96948.44
2024-01-18T08:51:32.543Z,96955.44
2024-01-18T08:52:34.930Z,96953.81
2024-01-18T08:53:37.212Z,96949.56
2024-01-18T08:54:39.621Z,96967.28
2024-01-18T08:55:42.742Z,96956.84
2024-01-18T08:56:44.923Z,96960.03
2024-01-18T08:57:48.268Z,96949.56
2024-01-18T08:58:50.588Z,96963.84
2024-01-18T08:59:52.845Z,96963.13
2024-01-18T09:00:55.178Z,96964.03
2024-01-18T09:02:01.944Z,96961.41
2024-01-18T09:03:08.973Z,96962.72
2024-01-18T09:04:11.454Z,96971.66
2024-01-18T09:05:14.210Z,96970.63
2024-01-18T09:06:16.468Z,96966.31
2024-01-18T09:07:18.772Z,96972.81
2024-01-18T09:08:21.266Z,96978.56
2024-01-18T09:09:23.517Z,96985.50
2024-01-18T09:10:25.748Z,96981.69
2024-01-18T09:11:28.037Z,96978.28
2024-01-18T09:12:30.484Z,96980.97
2024-01-18T09:13:32.790Z,96971.75
2024-01-18T09:14:35.167Z,96969.84
2024-01-18T09:15:37.490Z,96979.50
2024-01-18T09:16:39.696Z,96983.16
2024-01-18T09:17:42.299Z,96987.94
2024-01-18T09:18:56.361Z,96998.63
2024-01-18T09:20:08.082Z,97001.78
2024-01-18T09:21:10.446Z,97004.19
2024-01-18T09:22:12.746Z,97002.63
2024-01-18T09:23:15.030Z,97002.75
2024-01-18T09:24:17.578Z,97003.66
2024-01-18T09:25:20.578Z,97016.00
2024-01-18T09:26:22.812Z,97016.38
2024-01-18T09:27:25.093Z,97012.22
2024-01-18T09:28:28.900Z,97016.53
2024-01-18T09:29:31.238Z,97019.81
2024-01-18T09:30:33.453Z,97019.41
2024-01-18T09:31:41.468Z,97029.09
2024-01-18T09:32:46.381Z,97054.00
2024-01-18T09:33:48.914Z,97054.97
2024-01-18T09:34:51.195Z,97058.47
2024-01-18T09:35:53.482Z,97066.38
2024-01-18T09:36:55.847Z,97074.25
2024-01-18T09:37:58.197Z,97074.19
2024-01-18T09:39:00.459Z,97080.34
2024-01-18T09:40:02.928Z,97082.97
2024-01-18T09:41:08.857Z,97089.56
2024-01-18T09:42:16.639Z,97091.22
2024-01-18T09:43:20.736Z,97108.63
2024-01-18T09:44:31.858Z,97112.59
2024-01-18T09:45:38.439Z,97122.34
2024-01-18T09:46:42.071Z,97120.88
2024-01-18T09:47:45.840Z,97124.16
2024-01-18T09:48:48.253Z,97118.84
2024-01-18T09:49:52.327Z,97132.88
2024-01-18T09:50:56.575Z,97121.41
2024-01-18T09:51:59.483Z,97126.81
2024-01-18T09:53:01.805Z,97124.78
2024-01-18T09:54:04.085Z,97131.94
2024-01-18T09:55:09.417Z,97141.34
2024-01-18T09:56:21.745Z,97146.41
2024-01-18T09:57:31.263Z,97152.16
2024-01-18T09:58:33.789Z,97153.13
2024-01-18T09:59:37.815Z,97150.28
2024-01-18T10:00:58.996Z,97150.69
2024-01-18T10:02:02.919Z,97134.00
2024-01-18T10:03:05.457Z,97147.72
2024-01-18T10:04:11.659Z,97143.19
2024-01-18T10:05:14.353Z,97149.94
2024-01-18T10:06:18.726Z,97145.84
2024-01-18T10:07:22.134Z,97144.88
2024-01-18T10:08:24.680Z,97144.34
2024-01-18T10:09:27.203Z,97139.97
2024-01-18T10:10:29.503Z,97144.50
2024-01-18T10:11:31.776Z,97152.88
2024-01-18T10:12:34.068Z,97159.09
2024-01-18T10:13:56.621Z,97155.91
2024-01-18T10:14:59.260Z,97163.22
2024-01-18T10:16:01.502Z,97159.81
2024-01-18T10:17:03.781Z,97159.06
2024-01-18T10:18:07.209Z,97150.16
2024-01-18T10:19:18.528Z,97160.38
2024-01-18T10:20:23.646Z,97161.50
2024-01-18T10:21:26.035Z,97162.41
2024-01-18T10:22:29.830Z,97172.84
2024-01-18T10:23:32.596Z,97173.25
2024-01-18T10:24:40.819Z,97170.50
2024-01-18T10:25:45.680Z,97179.38
2024-01-18T10:26:47.891Z,97174.03
2024-01-18T10:27:53.034Z,97184.19
2024-01-18T10:28:56.653Z,97173.56
2024-01-18T10:29:58.877Z,97188.16
2024-01-18T10:31:02.243Z,97182.94
2024-01-18T10:32:05.614Z,97188.28
2024-01-18T10:33:09.716Z,97184.19
2024-01-18T10:34:12.452Z,97180.56
2024-01-18T10:35:25.919Z,97192.66
2024-01-18T10:36:28.326Z,97186.84
2024-01-18T10:37:30.513Z,97191.25
2024-01-18T10:38:33.825Z,97197.53
2024-01-18T10:39:43.246Z,97207.88
2024-01-18T10:40:51.273Z,97203.72
2024-01-18T10:41:53.602Z,97206.84
2024-01-18T10:42:56.344Z,97212.63
2024-01-18T10:43:58.699Z,97212.25
2024-01-18T10:45:03.623Z,97211.59
2024-01-18T10:46:06.121Z,97213.22
2024-01-18T10:47:12.132Z,97216.88
2024-01-18T10:48:14.529Z,97221.03
2024-01-18T10:49:18.069Z,97215.09
2024-01-18T10:50:20.596Z,97226.09
2024-01-18T10:51:24.818Z,97229.50
2024-01-18T10:52:27.206Z,97231.97
2024-01-18T10:53:37.700Z,97232.38
2024-01-18T10:54:46.802Z,97230.91
2024-01-18T10:55:56.641Z,97237.91
2024-01-18T10:57:00.925Z,97233.09
2024-01-18T10:58:03.454Z,97237.84
2024-01-18T10:59:07.422Z,97240.44
2024-01-18T11:00:10.273Z,97239.34
2024-01-18T11:01:12.673Z,97237.97
2024-01-18T11:02:15.228Z,97244.31
2024-01-18T11:03:18.468Z,97249.69
2024-01-18T11:04:21.714Z,97248.84
2024-01-18T11:05:24.656Z,97254.91
2024-01-18T11:06:30.172Z,97259.72
2024-01-18T11:07:33.706Z,97269.09
2024-01-18T11:08:37.298Z,97263.22
2024-01-18T11:09:40.740Z,97267.94
2024-01-18T11:10:46.010Z,97278.63
2024-01-18T11:11:48.476Z,97275.81
2024-01-18T11:12:51.238Z,97278.28
2024-01-18T11:13:53.658Z,97276.50
2024-01-18T11:14:56.694Z,97290.31
2024-01-18T11:15:59.021Z,97289.38
2024-01-18T11:17:13.537Z,97285.38
2024-01-18T11:18:16.107Z,97282.69
2024-01-18T11:19:42.313Z,97280.09
2024-01-18T11:20:59.872Z,97288.63
2024-01-18T11:22:02.221Z,97287.47
2024-01-18T11:23:04.610Z,97295.63
2024-01-18T11:24:08.886Z,97299.25
2024-01-18T11:25:13.601Z,97301.34
2024-01-18T11:26:22.012Z,97301.94
2024-01-18T11:27:24.943Z,97316.38
2024-01-18T11:28:28.388Z,97312.00
2024-01-18T11:29:36.069Z,97322.06
2024-01-18T11:30:41.898Z,97314.41
2024-01-18T11:31:50.987Z,97316.19
2024-01-18T11:32:55.095Z,97323.03
2024-01-18T11:33:57.837Z,97326.91
2024-01-18T11:35:14.419Z,97329.59
2024-01-18T11:36:17.066Z,97331.88
2024-01-18T11:37:25.731Z,97344.38
2024-01-18T11:38:34.156Z,97341.56
2024-01-18T11:39:53.891Z,97346.88
2024-01-18T11:41:20.837Z,97346.38
2024-01-18T11:42:28.329Z,97347.44
2024-01-18T11:43:52.403Z,97353.97
2024-01-18T11:45:01.404Z,97343.78
2024-01-18T11:46:03.881Z,97358.91
2024-01-18T11:47:07.492Z,97369.81
2024-01-18T11:48:09.981Z,97365.97
2024-01-18T11:49:12.488Z,97356.91
2024-01-18T11:50:15.144Z,97362.13
2024-01-18T11:51:17.446Z,97375.66
2024-01-18T11:52:22.897Z,97368.81
2024-01-18T11:53:25.501Z,97372.00
2024-01-18T11:54:27.956Z,97370.31
2024-01-18T11:55:31.805Z,97366.16
2024-01-18T11:56:37.769Z,97376.97
2024-01-18T11:57:40.154Z,97367.75
2024-01-18T11:58:42.464Z,97370.88
2024-01-18T11:59:48.329Z,97387.72
2024-01-18T12:00:50.740Z,97392.03
2024-01-18T12:01:55.577Z,97390.78
2024-01-18T12:02:57.843Z,97391.56
2024-01-18T12:04:00.322Z,97394.56
2024-01-18T12:05:05.645Z,97390.09
2024-01-18T12:06:08.115Z,97393.94
2024-01-18T12:07:12.109Z,97399.69
2024-01-18T12:08:14.958Z,97403.28
2024-01-18T12:09:17.294Z,97401.31
2024-01-18T12:10:19.957Z,97409.00
2024-01-18T12:11:22.207Z,97405.41
2024-01-18T12:12:25.183Z,97407.84
2024-01-18T12:13:29.142Z,97413.50
2024-01-18T12:14:33.581Z,97412.69
2024-01-18T12:15:35.842Z,97422.69
2024-01-18T12:16:38.111Z,97427.78
2024-01-18T12:17:40.323Z,97429.34
2024-01-18T12:18:44.286Z,97432.50
2024-01-18T12:19:48.176Z,97431.72
2024-01-18T12:20:50.488Z,97423.41
2024-01-18T12:21:53.004Z,97436.34
2024-01-18T12:22:55.405Z,97439.84
2024-01-18T12:23:58.200Z,97444.94
2024-01-18T12:25:03.419Z,97449.69